Time;durP1;ratioP1;P1;durP2;ratioP2;P2;SDS_P1;SDS_P2;PMS_P1;PMS_P2;Temp;Humidity;BMP_temperature;BMP_pressure;BME280_temperature;BME280_humidity;BME280_pressure;Samples;Min_cycle;Max_cycle;Signal;HPM_P1;HPM_P2
2021/05/08 00:01:36;;;;;;;4.90;3.25;;;333.20;2329.60;;;;;;5094819;28;20027;-73
2021/05/08 00:04:04;;;;;;;5.50;3.30;;;333.20;2329.60;;;;;;5094393;28;20062;-73
2021/05/08 00:06:29;;;;;;;5.40;3.53;;;333.20;2329.60;;;;;;5094986;28;20456;-70
2021/05/08 00:08:55;;;;;;;5.38;3.22;;;333.10;2329.60;;;;;;5094315;28;20027;-69
2021/05/08 00:11:21;;;;;;;4.57;3.10;;;333.00;2329.60;;;;;;5094645;28;20028;-71
2021/05/08 00:13:46;;;;;;;4.43;3.10;;;332.90;2329.60;;;;;;5094676;28;20070;-69
2021/05/08 00:16:12;;;;;;;4.50;2.40;;;332.80;2329.60;;;;;;5094298;28;20028;-70
2021/05/08 00:18:38;;;;;;;4.20;2.50;;;308.10;2304.00;;;;;;5093979;28;20066;-69
2021/05/08 00:21:04;;;;;;;3.90;2.50;;;308.10;2304.00;;;;;;5094091;28;20482;-71
2021/05/08 00:23:30;;;;;;;3.90;2.60;;;308.00;2304.00;;;;;;5094348;28;20078;-73
2021/05/08 00:25:56;;;;;;;3.80;2.55;;;308.00;2304.00;;;;;;5094009;28;20443;-72
2021/05/08 00:28:21;;;;;;;3.95;2.75;;;307.90;2304.00;;;;;;5094102;28;20505;-70
2021/05/08 00:30:47;;;;;;;3.85;2.60;;;307.80;2304.00;;;;;;5093940;28;20103;-69
2021/05/08 00:33:13;;;;;;;3.60;2.55;;;307.80;2304.00;;;;;;5094017;28;20020;-69
2021/05/08 00:35:39;;;;;;;3.70;2.40;;;307.80;2304.00;;;;;;5094441;28;20024;-69
2021/05/08 00:38:04;;;;;;;3.10;2.30;;;307.70;2304.00;;;;;;5093802;28;20058;-70
2021/05/08 00:40:30;;;;;;;3.08;2.05;;;307.60;2304.00;;;;;;5093700;28;20024;-68
2021/05/08 00:42:56;;;;;;;4.15;2.20;;;307.60;2304.00;;;;;;5093844;28;20024;-72
2021/05/08 00:45:21;;;;;;;3.33;1.90;;;307.60;2304.00;;;;;;5093910;28;20027;-73
2021/05/08 00:47:49;;;;;;;2.78;1.95;;;307.60;2304.00;;;;;;5093681;28;20039;-77
2021/05/08 00:50:18;;;;;;;2.70;1.90;;;307.60;2304.00;;;;;;5093459;28;20489;-73
2021/05/08 00:52:44;;;;;;;3.25;2.00;;;307.60;2304.00;;;;;;5093936;28;20482;-70
2021/05/08 00:55:10;;;;;;;2.88;2.10;;;307.60;2304.00;;;;;;5093738;28;20028;-67
2021/05/08 00:57:36;;;;;;;2.83;1.90;;;307.60;2304.00;;;;;;5093559;28;20530;-69
2021/05/08 01:00:05;;;;;;;2.95;2.00;;;307.60;2304.00;;;;;;5093262;28;20027;-68
2021/05/08 01:02:31;;;;;;;2.80;2.03;;;307.60;2304.00;;;;;;5093774;28;20020;-68
2021/05/08 01:04:57;;;;;;;2.85;2.03;;;307.60;2304.00;;;;;;5093407;28;20106;-69
2021/05/08 01:07:24;;;;;;;2.85;2.00;;;307.60;2304.00;;;;;;5093341;28;20577;-68
2021/05/08 01:09:50;;;;;;;3.13;1.98;;;307.60;2304.00;;;;;;5093056;28;20028;-68
2021/05/08 01:12:16;;;;;;;3.60;2.10;;;307.60;2304.00;;;;;;5093584;28;20035;-68
2021/05/08 01:14:42;;;;;;;3.75;2.20;;;307.50;2304.00;;;;;;5093336;28;20533;-70
2021/05/08 01:17:08;;;;;;;4.22;2.40;;;307.50;2304.00;;;;;;5093242;28;20074;-76
2021/05/08 01:19:34;;;;;;;3.00;2.20;;;307.40;2304.00;;;;;;5092791;28;20051;-78
2021/05/08 01:22:01;;;;;;;3.80;2.55;;;307.50;2304.00;;;;;;5093270;28;20041;-80
2021/05/08 01:24:27;;;;;;;3.13;2.40;;;307.40;2304.00;;;;;;5093158;28;20050;-80
2021/05/08 01:26:52;;;;;;;3.65;2.60;;;307.40;2304.00;;;;;;5093079;28;20028;-80
2021/05/08 01:29:18;;;;;;;3.63;2.60;;;307.40;2304.00;;;;;;5092628;28;20024;-71
2021/05/08 01:31:44;;;;;;;3.60;2.60;;;307.40;2304.00;;;;;;5092969;28;20539;-69
2021/05/08 01:34:10;;;;;;;4.00;2.47;;;307.40;2304.00;;;;;;5092956;28;20062;-69
2021/05/08 01:36:36;;;;;;;3.72;2.78;;;307.40;2304.00;;;;;;5092644;28;20028;-70
2021/05/08 01:39:03;;;;;;;5.03;2.78;;;307.40;2304.00;;;;;;5092509;28;20035;-69
2021/05/08 01:41:29;;;;;;;3.80;2.75;;;307.30;2304.00;;;;;;5093270;28;20027;-69
2021/05/08 01:43:55;;;;;;;3.60;2.60;;;307.30;2304.00;;;;;;5092533;28;20401;-72
2021/05/08 01:46:21;;;;;;;5.22;2.55;;;307.30;2304.00;;;;;;5092802;28;20035;-68
2021/05/08 01:48:46;;;;;;;3.63;2.60;;;307.30;2304.00;;;;;;5092148;28;20536;-70
2021/05/08 01:51:13;;;;;;;4.15;2.60;;;307.30;2304.00;;;;;;5092846;28;20107;-69
2021/05/08 01:53:38;;;;;;;3.67;2.80;;;307.30;2304.00;;;;;;5092388;28;20028;-71
2021/05/08 01:56:06;;;;;;;4.25;2.75;;;307.30;2304.00;;;;;;5092627;28;20031;-69
2021/05/08 01:58:32;;;;;;;3.22;2.40;;;307.40;2304.00;;;;;;5092452;28;20027;-70
2021/05/08 02:00:57;;;;;;;4.00;2.45;;;307.40;2304.00;;;;;;5092243;28;20028;-71
2021/05/08 02:03:23;;;;;;;3.60;2.55;;;307.30;2304.00;;;;;;5092368;28;20107;-70
2021/05/08 02:05:50;;;;;;;3.60;2.45;;;307.30;2304.00;;;;;;5092022;28;20020;-78
2021/05/08 02:08:16;;;;;;;4.05;2.40;;;307.30;2304.00;;;;;;5091946;28;20467;-81
2021/05/08 02:10:44;;;;;;;3.72;2.50;;;307.30;2304.00;;;;;;5091711;28;20103;-80
2021/05/08 02:13:11;;;;;;;3.42;2.53;;;307.30;2304.00;;;;;;5074079;28;20424;-79
2021/05/08 02:15:37;;;;;;;3.90;2.70;;;307.40;2304.00;;;;;;5092350;28;20099;-80
2021/05/08 02:18:04;;;;;;;4.00;2.35;;;307.30;2304.00;;;;;;5091915;28;20046;-78
2021/05/08 02:20:37;;;;;;;2.95;2.15;;;307.30;2304.00;;;;;;5091907;28;20020;-78
2021/05/08 02:23:05;;;;;;;3.13;2.13;;;307.30;2304.00;;;;;;5091762;28;20016;-77
2021/05/08 02:25:31;;;;;;;3.13;1.98;;;307.30;2304.00;;;;;;5091930;28;20046;-78
2021/05/08 02:27:57;;;;;;;2.80;1.85;;;307.20;2304.00;;;;;;5091824;28;20546;-79
2021/05/08 02:30:26;;;;;;;3.13;1.77;;;307.20;2304.00;;;;;;5091545;28;20505;-79
2021/05/08 02:32:53;;;;;;;2.70;1.90;;;307.20;2304.00;;;;;;5091704;28;20497;-79
2021/05/08 02:35:19;;;;;;;2.58;1.70;;;282.50;2278.40;;;;;;5091809;28;20046;-79
2021/05/08 02:37:46;;;;;;;2.60;1.77;;;282.50;2278.40;;;;;;5091958;28;20440;-76
2021/05/08 02:40:17;;;;;;;2.72;1.70;;;282.50;2278.40;;;;;;5091174;28;20016;-78
2021/05/08 02:42:43;;;;;;;3.20;1.73;;;282.50;2278.40;;;;;;5091761;28;20051;-74
2021/05/08 02:45:10;;;;;;;2.58;1.85;;;282.50;2278.40;;;;;;5091623;28;20023;-69
2021/05/08 02:47:40;;;;;;;3.55;1.90;;;282.50;2278.40;;;;;;5091579;28;20481;-68
2021/05/08 02:50:07;;;;;;;3.45;1.90;;;282.50;2278.40;;;;;;5091274;28;20028;-70
2021/05/08 02:52:33;;;;;;;3.65;1.90;;;282.50;2278.40;;;;;;5091720;28;20024;-69
2021/05/08 02:54:59;;;;;;;2.97;1.70;;;282.50;2278.40;;;;;;5091281;28;20031;-68
2021/05/08 02:57:25;;;;;;;2.47;1.63;;;282.50;2278.40;;;;;;5089670;28;20103;-79
2021/05/08 02:59:50;;;;;;;4.00;1.90;;;282.50;2278.40;;;;;;5091033;28;20020;-78
2021/05/08 03:02:18;;;;;;;3.17;1.98;;;282.50;2278.40;;;;;;5091174;28;20500;-78
2021/05/08 03:04:43;;;;;;;3.30;2.13;;;307.20;2304.00;;;;;;5091117;28;20023;-71
2021/05/08 03:07:09;;;;;;;3.85;2.13;;;282.50;2278.40;;;;;;5091439;28;20444;-70
2021/05/08 03:09:35;;;;;;;2.78;1.90;;;282.50;2278.40;;;;;;5091238;28;20027;-79
2021/05/08 03:12:04;;;;;;;3.22;2.10;;;282.50;2278.40;;;;;;5091106;28;20386;-76
2021/05/08 03:14:30;;;;;;;3.00;2.00;;;282.50;2278.40;;;;;;5090994;28;20067;-73
2021/05/08 03:16:57;;;;;;;3.10;2.28;;;282.40;2278.40;;;;;;5090863;28;20043;-76
2021/05/08 03:19:23;;;;;;;3.35;2.17;;;282.40;2278.40;;;;;;5090398;28;20031;-78
2021/05/08 03:21:48;;;;;;;3.40;2.30;;;282.40;2278.40;;;;;;5090402;28;20020;-70
2021/05/08 03:24:14;;;;;;;3.50;2.30;;;282.50;2278.40;;;;;;5091219;28;20058;-77
2021/05/08 03:26:40;;;;;;;3.38;2.50;;;282.50;2278.40;;;;;;5090626;28;20077;-79
2021/05/08 03:29:06;;;;;;;3.60;2.30;;;282.50;2278.40;;;;;;5090819;28;20092;-78
2021/05/08 03:31:33;;;;;;;3.60;2.53;;;282.50;2278.40;;;;;;5090830;28;20450;-78
2021/05/08 03:33:59;;;;;;;3.70;2.55;;;282.50;2278.40;;;;;;5090682;28;20039;-79
2021/05/08 03:36:25;;;;;;;3.83;2.60;;;282.50;2278.40;;;;;;5072820;28;20028;-79
2021/05/08 03:38:51;;;;;;;3.50;2.60;;;282.50;2278.40;;;;;;5090718;28;20020;-78
2021/05/08 03:41:17;;;;;;;3.78;2.58;;;282.50;2278.40;;;;;;5090667;28;20016;-78
2021/05/08 03:43:43;;;;;;;3.90;2.58;;;282.50;2278.40;;;;;;5090651;28;20028;-67
2021/05/08 03:46:08;;;;;;;3.92;2.65;;;307.20;2304.00;;;;;;5090801;28;20367;-69
2021/05/08 03:48:34;;;;;;;4.50;2.55;;;307.20;2304.00;;;;;;5090652;28;20582;-71
2021/05/08 03:51:00;;;;;;;3.78;2.58;;;307.20;2304.00;;;;;;5090426;28;20016;-74
2021/05/08 03:53:26;;;;;;;4.18;2.20;;;307.30;2304.00;;;;;;5090958;28;20536;-73
2021/05/08 03:55:52;;;;;;;4.20;2.40;;;307.30;2304.00;;;;;;5090582;28;20024;-77
2021/05/08 03:58:29;;;;;;;4.80;2.40;;;307.30;2304.00;;;;;;5091062;28;20032;-72
2021/05/08 04:00:56;;;;;;;3.80;2.35;;;307.30;2304.00;;;;;;5090141;28;20043;-74
2021/05/08 04:03:22;;;;;;;3.60;2.30;;;307.30;2304.00;;;;;;5090595;28;20028;-78
2021/05/08 04:05:48;;;;;;;4.25;2.30;;;307.40;2304.00;;;;;;5090391;28;20557;-78
2021/05/08 04:08:14;;;;;;;3.53;2.20;;;307.40;2304.00;;;;;;5090592;28;20024;-73
2021/05/08 04:10:40;;;;;;;4.10;2.50;;;307.50;2304.00;;;;;;5090199;28;20439;-70
2021/05/08 04:13:06;;;;;;;4.85;2.40;;;307.60;2304.00;;;;;;5090495;28;20050;-69
2021/05/08 04:15:32;;;;;;;4.10;2.22;;;307.60;2304.00;;;;;;5090764;28;20020;-69
2021/05/08 04:17:58;;;;;;;3.15;2.30;;;307.70;2304.00;;;;;;5090078;28;20051;-69
2021/05/08 04:20:24;;;;;;;3.40;2.20;;;307.70;2304.00;;;;;;5090164;28;20024;-69
2021/05/08 04:22:49;;;;;;;3.60;2.30;;;307.70;2304.00;;;;;;5090452;28;20524;-69
2021/05/08 04:25:15;;;;;;;3.72;2.30;;;307.70;2304.00;;;;;;5090362;28;20024;-68
2021/05/08 04:27:41;;;;;;;3.65;2.05;;;307.70;2304.00;;;;;;5090270;28;20051;-76
2021/05/08 04:30:07;;;;;;;3.58;2.28;;;307.70;2304.00;;;;;;5090143;28;20072;-76
2021/05/08 04:32:33;;;;;;;3.53;2.22;;;307.70;2304.00;;;;;;5093277;28;20042;-72
2021/05/08 04:34:59;;;;;;;3.60;2.50;;;307.60;2304.00;;;;;;5093933;28;20028;-69
2021/05/08 04:37:25;;;;;;;5.07;2.15;;;307.60;2304.00;;;;;;5094399;28;20027;-68
2021/05/08 04:39:50;;;;;;;3.30;2.35;;;307.60;2304.00;;;;;;5093870;28;20028;-68
2021/05/08 04:42:16;;;;;;;4.32;2.35;;;307.50;2304.00;;;;;;5094001;28;20020;-68
2021/05/08 04:44:42;;;;;;;3.85;2.08;;;307.60;2304.00;;;;;;5093963;28;20024;-77
2021/05/08 04:47:07;;;;;;;4.88;2.30;;;307.50;2304.00;;;;;;5093861;28;20016;-73
2021/05/08 04:49:34;;;;;;;3.65;2.20;;;307.50;2304.00;;;;;;5093738;28;20065;-77
2021/05/08 04:51:59;;;;;;;3.53;2.45;;;307.60;2304.00;;;;;;5093549;28;20035;-73
2021/05/08 04:54:25;;;;;;;3.63;2.50;;;307.60;2304.00;;;;;;5093868;28;20017;-70
2021/05/08 04:56:51;;;;;;;4.00;2.50;;;307.70;2304.00;;;;;;5093730;28;20089;-69
2021/05/08 04:59:17;;;;;;;5.18;2.80;;;307.80;2304.00;;;;;;5093300;28;20026;-69
2021/05/08 05:01:42;;;;;;;3.50;2.40;;;307.90;2304.00;;;;;;5093490;28;20478;-69
2021/05/08 05:04:08;;;;;;;3.70;2.60;;;307.90;2304.00;;;;;;5093503;28;20035;-76
2021/05/08 05:06:34;;;;;;;3.42;2.60;;;308.00;2304.00;;;;;;5093311;28;20053;-75
2021/05/08 05:08:59;;;;;;;3.70;2.70;;;308.00;2304.00;;;;;;5093183;28;20039;-69
2021/05/08 05:11:26;;;;;;;4.07;2.70;;;308.00;2304.00;;;;;;5093387;28;20024;-77
2021/05/08 05:13:51;;;;;;;5.00;2.83;;;308.10;2304.00;;;;;;5093555;28;20016;-76
2021/05/08 05:16:17;;;;;;;4.47;2.78;;;332.80;2329.60;;;;;;5093345;28;20431;-75
2021/05/08 05:18:43;;;;;;;4.78;2.72;;;332.80;2329.60;;;;;;5092749;28;20048;-70
2021/05/08 05:21:09;;;;;;;4.40;2.72;;;332.90;2329.60;;;;;;5093433;28;20388;-77
2021/05/08 05:23:35;;;;;;;4.10;3.00;;;332.80;2329.60;;;;;;5075042;28;20032;-79
2021/05/08 05:26:01;;;;;;;3.80;2.60;;;332.80;2329.60;;;;;;5093079;28;20039;-78
2021/05/08 05:28:29;;;;;;;4.68;2.70;;;332.80;2329.60;;;;;;5092881;28;20019;-80
2021/05/08 05:30:55;;;;;;;5.25;2.85;;;332.90;2329.60;;;;;;5093389;28;20397;-79
2021/05/08 05:33:22;;;;;;;4.22;3.10;;;333.10;2329.60;;;;;;5092857;28;20016;-79
2021/05/08 05:35:48;;;;;;;4.00;2.92;;;333.10;2329.60;;;;;;5093211;28;20024;-79
2021/05/08 05:38:14;;;;;;;6.63;3.13;;;333.30;2329.60;;;;;;5074979;28;20020;-69
2021/05/08 05:40:40;;;;;;;5.25;3.30;;;333.30;2329.60;;;;;;5092908;28;20028;-70
2021/05/08 05:43:06;;;;;;;5.72;4.00;;;333.40;2329.60;;;;;;5092031;28;20024;-70
2021/05/08 05:45:31;;;;;;;4.68;3.58;;;333.40;2329.60;;;;;;5092741;28;20019;-70
2021/05/08 05:47:59;;;;;;;5.00;3.60;;;333.50;2329.60;;;;;;5092817;28;20062;-70
2021/05/08 05:50:25;;;;;;;5.13;3.70;;;333.50;2329.60;;;;;;5092641;28;20043;-77
2021/05/08 05:52:54;;;;;;;4.45;3.50;;;333.50;2329.60;;;;;;5091096;28;20103;-70
2021/05/08 05:55:24;;;;;;;4.57;3.50;;;333.50;2329.60;;;;;;5092362;28;20028;-69
2021/05/08 05:57:50;;;;;;;4.97;3.53;;;333.70;2329.60;;;;;;5092725;28;20371;-69
2021/05/08 06:00:17;;;;;;;4.68;3.70;;;358.50;2329.60;;;;;;5092140;28;20107;-69
2021/05/08 06:02:43;;;;;;;4.30;3.30;;;358.60;2329.60;;;;;;5092431;28;20107;-69
2021/05/08 06:05:10;;;;;;;5.50;3.65;;;358.70;2329.60;;;;;;5092417;28;20107;-68
2021/05/08 06:07:36;;;;;;;5.43;3.50;;;358.80;2329.60;;;;;;5091996;28;20027;-76
2021/05/08 06:10:03;;;;;;;4.22;3.22;;;358.60;2329.60;;;;;;5091708;28;20087;-71
2021/05/08 06:12:29;;;;;;;4.78;3.50;;;358.50;2329.60;;;;;;5092260;28;20031;-69
2021/05/08 06:14:54;;;;;;;5.63;3.60;;;358.70;2329.60;;;;;;5092107;28;20016;-77
2021/05/08 06:17:20;;;;;;;5.68;3.78;;;359.00;2329.60;;;;;;5091944;28;20056;-77
2021/05/08 06:19:46;;;;;;;5.10;3.55;;;384.00;2329.60;;;;;;5091675;28;20024;-79
2021/05/08 06:22:11;;;;;;;4.63;3.70;;;384.10;2329.60;;;;;;5092130;28;20027;-77
2021/05/08 06:24:37;;;;;;;4.72;3.80;;;384.60;2304.00;;;;;;5092105;28;20031;-75
2021/05/08 06:27:03;;;;;;;5.00;3.70;;;435.50;2124.80;;;;;;5091749;28;20106;-70
2021/05/08 06:29:29;;;;;;;4.13;3.42;;;461.00;1996.80;;;;;;5091784;28;20020;-68
2021/05/08 06:31:54;;;;;;;5.32;4.03;;;435.70;2022.40;;;;;;5091829;28;20470;-70
2021/05/08 06:34:20;;;;;;;4.40;3.72;;;410.00;2099.20;;;;;;5091839;28;20043;-68
2021/05/08 06:36:46;;;;;;;5.72;3.78;;;384.60;2099.20;;;;;;5091724;28;20065;-68
2021/05/08 06:39:12;;;;;;;4.85;3.80;;;384.00;2124.80;;;;;;5091501;28;20035;-68
2021/05/08 06:41:37;;;;;;;4.20;3.38;;;435.20;1971.20;;;;;;5091751;28;20027;-70
2021/05/08 06:44:04;;;;;;;4.07;3.50;;;410.30;1971.20;;;;;;5091548;28;20020;-71
2021/05/08 06:46:30;;;;;;;4.50;3.60;;;409.80;2022.40;;;;;;5091760;28;20028;-77
2021/05/08 06:48:56;;;;;;;4.13;3.40;;;435.90;1920.00;;;;;;5090948;28;20012;-71
2021/05/08 06:51:21;;;;;;;4.10;3.10;;;461.40;1868.80;;;;;;5091434;28;20032;-70
2021/05/08 06:53:47;;;;;;;4.70;3.20;;;461.20;1843.20;;;;;;5091246;28;20031;-71
2021/05/08 06:56:13;;;;;;;4.20;3.33;;;435.90;1843.20;;;;;;5091525;28;20398;-77
2021/05/08 06:58:40;;;;;;;4.55;3.30;;;461.40;1766.40;;;;;;5091081;28;20028;-70
2021/05/08 07:01:07;;;;;;;5.75;3.40;;;461.70;1740.80;;;;;;5077417;28;20054;-77
2021/05/08 07:03:32;;;;;;;3.90;3.05;;;461.20;1740.80;;;;;;5091587;28;20115;-73
2021/05/08 07:05:58;;;;;;;4.20;3.15;;;461.50;1740.80;;;;;;5091237;28;20115;-67
2021/05/08 07:08:24;;;;;;;3.90;2.88;;;512.40;1612.80;;;;;;5091179;28;20032;-70
2021/05/08 07:10:51;;;;;;;4.68;3.08;;;512.10;1612.80;;;;;;5090926;28;20081;-69
2021/05/08 07:13:17;;;;;;;4.38;2.75;;;487.00;1638.40;;;;;;5091082;28;20107;-69
2021/05/08 07:15:43;;;;;;;4.97;3.40;;;487.10;1587.20;;;;;;5091171;28;20445;-77
2021/05/08 07:18:09;;;;;;;3.95;3.05;;;486.40;1612.80;;;;;;5090785;28;20071;-70
2021/05/08 07:20:37;;;;;;;4.00;3.08;;;460.90;1715.20;;;;;;5091128;28;20048;-77
2021/05/08 07:23:04;;;;;;;4.22;3.35;;;436.10;1689.60;;;;;;5090933;28;20099;-76
2021/05/08 07:25:31;;;;;;;3.83;2.90;;;461.00;1715.20;;;;;;5091158;28;20110;-70
2021/05/08 07:28:19;;;;;;;3.63;2.85;;;486.80;1638.40;;;;;;5090930;28;20107;-79
2021/05/08 07:30:46;;;;;;;4.70;3.00;;;512.00;1561.60;;;;;;5079095;28;20111;-73
2021/05/08 07:33:13;;;;;;;4.20;3.08;;;512.10;1510.40;;;;;;5090799;28;20027;-68
2021/05/08 07:35:40;;;;;;;4.57;3.35;;;512.50;1510.40;;;;;;5091131;28;20024;-71
2021/05/08 07:38:06;;;;;;;3.45;2.67;;;512.20;1510.40;;;;;;5090903;28;20464;-71
2021/05/08 07:40:32;;;;;;;3.83;2.75;;;512.00;1459.20;;;;;;5091172;28;20008;-72
2021/05/08 07:42:59;;;;;;;4.00;2.90;;;487.00;1484.80;;;;;;5091045;28;20428;-74
2021/05/08 07:45:26;;;;;;;4.45;2.80;;;486.60;1536.00;;;;;;5090687;28;20016;-74
2021/05/08 07:47:52;;;;;;;4.03;2.70;;;486.50;1510.40;;;;;;5090887;28;20024;-73
2021/05/08 07:50:19;;;;;;;3.97;2.80;;;461.40;1536.00;;;;;;5090582;28;20039;-73
2021/05/08 07:52:45;;;;;;;3.65;2.60;;;461.00;1536.00;;;;;;5091202;28;20039;-69
2021/05/08 07:55:11;;;;;;;3.85;2.80;;;461.00;1561.60;;;;;;5090749;28;20479;-72
2021/05/08 07:57:38;;;;;;;3.90;2.67;;;460.80;1612.80;;;;;;5090773;28;20031;-73
2021/05/08 08:00:08;;;;;;;3.67;2.80;;;461.10;1638.40;;;;;;5090150;28;20032;-73
2021/05/08 08:02:35;;;;;;;3.90;2.63;;;460.90;1638.40;;;;;;5090669;28;20103;-70
2021/05/08 08:05:02;;;;;;;3.88;2.53;;;461.10;1612.80;;;;;;5090226;28;20268;-69
2021/05/08 08:07:28;;;;;;;4.22;2.70;;;436.10;1587.20;;;;;;5093392;28;20024;-70
2021/05/08 08:09:55;;;;;;;4.00;2.60;;;435.70;1612.80;;;;;;5094269;28;20786;-70
2021/05/08 08:12:21;;;;;;;3.80;2.75;;;435.40;1664.00;;;;;;5094946;28;20432;-73
2021/05/08 08:14:47;;;;;;;3.80;2.80;;;435.20;1689.60;;;;;;5094323;28;20039;-73
2021/05/08 08:17:12;;;;;;;3.90;2.97;;;435.70;1689.60;;;;;;5094417;28;20044;-74
2021/05/08 08:19:38;;;;;;;4.07;2.95;;;436.00;1664.00;;;;;;5093901;28;20093;-73
2021/05/08 08:22:04;;;;;;;3.70;2.80;;;436.10;1664.00;;;;;;5094665;28;20099;-73
2021/05/08 08:24:29;;;;;;;5.32;2.90;;;460.80;1664.00;;;;;;5094181;28;20595;-78
2021/05/08 08:26:55;;;;;;;4.10;2.80;;;461.20;1638.40;;;;;;5093832;28;20107;-78
2021/05/08 08:29:22;;;;;;;3.65;2.55;;;461.30;1587.20;;;;;;5093570;28;20024;-72
2021/05/08 08:31:48;;;;;;;4.05;2.45;;;461.60;1536.00;;;;;;5094258;28;20034;-77
2021/05/08 08:34:14;;;;;;;3.95;2.70;;;461.50;1561.60;;;;;;5094098;28;20017;-77
2021/05/08 08:36:40;;;;;;;4.10;2.47;;;461.70;1561.60;;;;;;5094064;28;20039;-78
2021/05/08 08:39:06;;;;;;;4.68;2.55;;;486.50;1510.40;;;;;;5093854;28;20024;-78
2021/05/08 08:41:33;;;;;;;3.95;2.25;;;486.40;1510.40;;;;;;5093791;28;20059;-76
2021/05/08 08:43:58;;;;;;;3.10;2.20;;;461.70;1510.40;;;;;;5093468;28;20426;-74
2021/05/08 08:46:24;;;;;;;3.72;2.30;;;461.70;1484.80;;;;;;5093744;28;20063;-72
2021/05/08 08:48:51;;;;;;;4.05;2.30;;;486.50;1459.20;;;;;;5093500;28;20417;-75
2021/05/08 08:51:17;;;;;;;3.80;2.35;;;486.50;1433.60;;;;;;5093783;28;20017;-73
2021/05/08 08:53:44;;;;;;;3.72;2.20;;;486.70;1408.00;;;;;;5093381;28;20016;-76
2021/05/08 08:56:10;;;;;;;3.65;2.33;;;486.80;1408.00;;;;;;5093574;28;20474;-68
2021/05/08 08:58:39;;;;;;;4.47;2.60;;;487.00;1382.40;;;;;;5093231;28;20149;-74
2021/05/08 09:01:05;;;;;;;5.15;2.53;;;486.90;1356.80;;;;;;5093528;28;20540;-70
2021/05/08 09:03:32;;;;;;;3.88;2.50;;;487.00;1305.60;;;;;;5093430;28;20028;-70
2021/05/08 09:05:59;;;;;;;3.65;2.60;;;487.00;1305.60;;;;;;5093188;28;20045;-75
2021/05/08 09:08:26;;;;;;;5.00;2.50;;;487.00;1305.60;;;;;;5093600;28;20020;-76
2021/05/08 09:10:52;;;;;;;5.05;2.35;;;487.10;1305.60;;;;;;5093339;28;20392;-71
2021/05/08 09:13:20;;;;;;;3.97;2.70;;;512.10;1305.60;;;;;;5093195;28;20028;-68
2021/05/08 09:15:47;;;;;;;3.83;2.35;;;512.10;1254.40;;;;;;5093212;28;20466;-68
2021/05/08 09:18:36;;;;;;;3.72;2.55;;;487.30;1280.00;;;;;;5091684;28;20046;-71
2021/05/08 09:21:06;;;;;;;4.25;2.60;;;487.30;1254.40;;;;;;5093592;28;20020;-75
2021/05/08 09:23:33;;;;;;;3.72;2.28;;;487.30;1254.40;;;;;;5093123;28;20016;-69
2021/05/08 09:26:03;;;;;;;3.40;2.22;;;487.30;1254.40;;;;;;5093113;28;20017;-72
2021/05/08 09:28:30;;;;;;;5.55;2.40;;;512.20;1228.80;;;;;;5092836;28;20037;-74
2021/05/08 09:30:57;;;;;;;3.97;2.45;;;487.30;1254.40;;;;;;5093259;28;20028;-73
2021/05/08 09:33:25;;;;;;;5.45;2.60;;;512.20;1280.00;;;;;;5092928;28;20056;-71
2021/05/08 10:42:42;;;;;;;3.17;2.00;;;487.10;1228.80;;;;;;5067823;28;20767;-70
2021/05/08 10:45:17;;;;;;;4.03;1.90;;;487.00;1203.20;;;;;;5045927;28;20028;-70
2021/05/08 10:48:04;;;;;;;4.57;3.10;;;486.80;1203.20;;;;;;5067631;28;20031;-70
2021/05/08 10:50:41;;;;;;;5.20;3.10;;;487.20;1177.60;;;;;;5067300;28;20028;-77
2021/05/08 10:53:19;;;;;;;4.20;2.20;;;487.30;1177.60;;;;;;5067956;28;20029;-75
2021/05/08 10:55:57;;;;;;;3.00;1.70;;;487.30;1203.20;;;;;;5069586;28;20033;-76
2021/05/08 10:58:23;;;;;;;4.15;2.33;;;512.00;1177.60;;;;;;5067671;28;20021;-76
2021/05/08 11:01:00;;;;;;;3.85;2.00;;;487.30;1152.00;;;;;;5067298;28;20033;-70
2021/05/08 11:03:28;;;;;;;3.10;1.90;;;487.30;1177.60;;;;;;5067277;28;20103;-69
2021/05/08 11:06:14;;;;;;;4.20;2.88;;;512.00;1177.60;;;;;;5067473;28;20123;-66
2021/05/08 11:08:41;;;;;;;4.75;2.10;;;512.20;1203.20;;;;;;5066844;28;20082;-69
2021/05/08 11:11:19;;;;;;;3.85;1.75;;;512.10;1152.00;;;;;;5067465;28;20041;-71
2021/05/08 11:13:48;;;;;;;2.88;1.70;;;512.20;1203.20;;;;;;5067124;28;20021;-70
2021/05/08 11:16:19;;;;;;;3.17;2.03;;;512.40;1177.60;;;;;;5067510;28;20429;-74
2021/05/08 11:18:45;;;;;;;;;;;512.80;1152.00;;;;;;5067241;28;20070;-76
2021/05/08 11:21:11;;;;;;;2.50;1.67;;;512.80;1126.40;;;;;;5067206;28;19906;-79
2021/05/08 11:23:47;;;;;;;3.58;1.88;;;512.80;1126.40;;;;;;5067266;28;20107;-75
2021/05/08 11:26:22;;;;;;;3.70;2.05;;;512.80;1152.00;;;;;;5068568;28;20032;-77
2021/05/08 11:29:01;;;;;;;4.05;1.95;;;512.70;1126.40;;;;;;5067028;28;20382;-77
2021/05/08 11:31:30;;;;;;;9.05;6.07;;;512.40;1152.00;;;;;;5068109;28;20036;-77
2021/05/08 11:34:08;;;;;;;5.40;2.53;;;512.40;1203.20;;;;;;5068440;28;20017;-77
2021/05/08 11:36:46;;;;;;;2.85;1.73;;;512.40;1177.60;;;;;;5068582;28;20087;-71
2021/05/08 11:39:22;;;;;;;2.72;1.80;;;512.10;1177.60;;;;;;5067823;28;20126;-66
2021/05/08 11:41:54;;;;;;;5.10;3.97;;;487.10;1152.00;;;;;;5061347;28;20049;-75
2021/05/08 11:44:35;;;;;;;3.60;2.00;;;487.20;1152.00;;;;;;5054528;28;20096;-77
2021/05/08 11:47:28;;;;;;;2.67;1.55;;;487.30;1152.00;;;;;;5055007;28;20032;-65
2021/05/08 11:49:56;;;;;;;4.55;2.08;;;487.30;1126.40;;;;;;5055143;28;20056;-68
2021/05/08 11:52:32;;;;;;;3.22;1.90;;;512.00;1152.00;;;;;;5054294;28;20013;-75
2021/05/08 11:54:58;;;;;;;3.60;1.90;;;512.00;1177.60;;;;;;5042677;28;20056;-78
2021/05/08 11:57:24;;;;;;;3.13;1.83;;;512.20;1177.60;;;;;;5046437;28;20049;-78
2021/05/08 11:59:50;;;;;;;4.95;3.40;;;512.30;1152.00;;;;;;5054090;28;20021;-76
2021/05/08 12:02:19;;;;;;;5.25;3.30;;;512.30;1126.40;;;;;;5053994;28;20025;-76
2021/05/08 12:04:53;;;;;;;4.32;2.67;;;512.20;1152.00;;;;;;5047453;28;20025;-66
2021/05/08 12:07:24;;;;;;;4.03;1.90;;;512.30;1152.00;;;;;;5034804;28;20056;-65
2021/05/08 12:09:50;;;;;;;3.38;2.10;;;512.40;1126.40;;;;;;5033137;28;20399;-75
2021/05/08 12:12:16;;;;;;;3.17;2.00;;;512.20;1152.00;;;;;;5034553;28;20028;-75
2021/05/08 12:14:44;;;;;;;3.40;1.80;;;487.30;1152.00;;;;;;5032906;28;20025;-75
2021/05/08 12:17:11;;;;;;;3.75;1.90;;;487.30;1177.60;;;;;;5034389;28;20056;-69
2021/05/08 12:19:38;;;;;;;3.35;2.00;;;487.30;1177.60;;;;;;5034067;28;20559;-74
2021/05/08 12:22:06;;;;;;;3.50;2.03;;;487.30;1152.00;;;;;;5034642;28;20120;-68
2021/05/08 12:24:32;;;;;;;2.92;1.90;;;487.20;1126.40;;;;;;5034549;28;20040;-70
2021/05/08 12:26:58;;;;;;;2.67;1.80;;;487.10;1152.00;;;;;;5034140;28;20017;-71
2021/05/08 12:29:23;;;;;;;3.53;2.10;;;487.30;1203.20;;;;;;5034184;28;20022;-70
2021/05/08 12:31:49;;;;;;;3.33;2.05;;;487.10;1177.60;;;;;;5033802;28;20013;-70
2021/05/08 12:34:19;;;;;;;4.55;2.10;;;487.00;1203.20;;;;;;5034223;28;20498;-70
2021/05/08 12:37:02;;;;;;;3.37;2.20;;;487.00;1177.60;;;;;;5034081;28;20074;-70
2021/05/08 12:39:28;;;;;;;3.10;2.10;;;487.00;1177.60;;;;;;5040336;28;20027;-70
2021/05/08 12:41:57;;;;;;;3.08;1.90;;;487.00;1152.00;;;;;;5053923;28;20041;-70
2021/05/08 12:44:32;;;;;;;3.25;2.00;;;486.90;1177.60;;;;;;5053641;28;20024;-70
2021/05/08 12:47:18;;;;;;;3.25;2.15;;;486.90;1203.20;;;;;;5052694;28;20374;-70
2021/05/08 12:50:03;;;;;;;3.58;2.20;;;487.00;1177.60;;;;;;5027459;28;20029;-70
2021/05/08 12:52:28;;;;;;;4.30;2.10;;;487.10;1177.60;;;;;;5053764;28;20425;-70
2021/05/08 12:54:55;;;;;;;3.83;2.10;;;487.20;1177.60;;;;;;5052935;28;20075;-66
2021/05/08 12:57:26;;;;;;;4.28;2.30;;;487.10;1177.60;;;;;;5053943;28;20021;-66
2021/05/08 12:59:56;;;;;;;4.22;2.13;;;487.30;1177.60;;;;;;5053766;28;20029;-65
2021/05/08 13:02:24;;;;;;;2.83;2.00;;;487.30;1152.00;;;;;;5053680;28;20041;-65
2021/05/08 13:04:52;;;;;;;3.80;2.00;;;512.00;1126.40;;;;;;5053297;28;20043;-66
2021/05/08 13:07:36;;;;;;;14.10;10.32;;;487.30;1152.00;;;;;;5053500;28;20143;-66
2021/05/08 13:10:17;;;;;;;6.15;3.75;;;487.10;1177.60;;;;;;5053665;28;20040;-65
2021/05/08 13:12:44;;;;;;;3.13;2.10;;;487.10;1177.60;;;;;;5053463;28;20025;-66
2021/05/08 13:15:10;;;;;;;3.80;2.22;;;487.20;1177.60;;;;;;5053555;28;20049;-71
2021/05/08 13:17:36;;;;;;;3.70;1.90;;;487.30;1152.00;;;;;;5053231;28;20452;-72
2021/05/08 13:20:03;;;;;;;3.67;2.53;;;487.30;1152.00;;;;;;5052915;28;20057;-70
2021/05/08 13:22:31;;;;;;;4.20;2.67;;;512.10;1152.00;;;;;;5053064;28;20024;-71
2021/05/08 13:24:57;;;;;;;3.83;2.00;;;512.30;1126.40;;;;;;5053274;28;20039;-70
2021/05/08 13:27:22;;;;;;;4.18;2.85;;;512.50;1126.40;;;;;;5052879;28;20500;-72